sensor_id;sensor_type;location;lat;lon;timestamp;temperature;humidity
38090;DHT22;23904;52.322;10.232;2024-01-30T00:01:19;6.70;99.90
38090;DHT22;23904;52.322;10.232;2024-01-30T00:03:45;6.60;99.90
38090;DHT22;23904;52.322;10.232;2024-01-30T00:06:11;6.60;99.90
38090;DHT22;23904;52.322;10.232;2024-01-30T00:08:37;6.60;99.90
38090;DHT22;23904;52.322;10.232;2024-01-30T00:11:03;6.50;99.90
38090;DHT22;23904;52.322;10.232;2024-01-30T00:13:28;6.60;99.90
38090;DHT22;23904;52.322;10.232;2024-01-30T00:15:54;6.60;99.90
38090;DHT22;23904;52.322;10.232;2024-01-30T00:18:19;6.60;99.90
38090;DHT22;23904;52.322;10.232;2024-01-30T00:20:45;6.60;99.90
38090;DHT22;23904;52.322;10.232;2024-01-30T00:23:11;6.50;99.90
38090;DHT22;23904;52.322;10.232;2024-01-30T00:25:36;6.50;99.90
38090;DHT22;23904;52.322;10.232;2024-01-30T00:28:02;6.50;99.90
38090;DHT22;23904;52.322;10.232;2024-01-30T00:30:27;6.50;99.90
38090;DHT22;23904;52.322;10.232;2024-01-30T00:32:53;6.50;99.90
38090;DHT22;23904;52.322;10.232;2024-01-30T00:35:19;6.50;99.90
38090;DHT22;23904;52.322;10.232;2024-01-30T00:37:45;6.40;99.90
38090;DHT22;23904;52.322;10.232;2024-01-30T00:40:10;6.40;99.90
38090;DHT22;23904;52.322;10.232;2024-01-30T00:42:44;6.40;99.90
38090;DHT22;23904;52.322;10.232;2024-01-30T00:45:14;6.40;99.90
38090;DHT22;23904;52.322;10.232;2024-01-30T00:47:40;6.40;99.90
38090;DHT22;23904;52.322;10.232;2024-01-30T00:50:06;6.40;99.90
38090;DHT22;23904;52.322;10.232;2024-01-30T00:52:32;6.50;99.90
38090;DHT22;23904;52.322;10.232;2024-01-30T00:54:59;6.40;99.90
38090;DHT22;23904;52.322;10.232;2024-01-30T00:57:25;6.40;99.90
38090;DHT22;23904;52.322;10.232;2024-01-30T00:59:50;6.40;99.90
38090;DHT22;23904;52.322;10.232;2024-01-30T01:02:16;6.50;99.90
38090;DHT22;23904;52.322;10.232;2024-01-30T01:04:43;6.50;99.90
38090;DHT22;23904;52.322;10.232;2024-01-30T01:07:10;6.50;99.90
38090;DHT22;23904;52.322;10.232;2024-01-30T01:09:36;6.60;99.90
38090;DHT22;23904;52.322;10.232;2024-01-30T01:12:02;6.60;99.90
38090;DHT22;23904;52.322;10.232;2024-01-30T01:14:28;6.70;99.90
38090;DHT22;23904;52.322;10.232;2024-01-30T01:16:53;6.60;99.90
38090;DHT22;23904;52.322;10.232;2024-01-30T01:19:19;6.60;99.90
38090;DHT22;23904;52.322;10.232;2024-01-30T01:21:44;6.60;99.90
38090;DHT22;23904;52.322;10.232;2024-01-30T01:24:10;6.60;99.90
38090;DHT22;23904;52.322;10.232;2024-01-30T01:26:35;6.60;99.90
38090;DHT22;23904;52.322;10.232;2024-01-30T01:29:01;6.60;99.90
38090;DHT22;23904;52.322;10.232;2024-01-30T01:31:26;6.50;99.90
38090;DHT22;23904;52.322;10.232;2024-01-30T01:33:54;6.50;99.90
38090;DHT22;23904;52.322;10.232;2024-01-30T01:36:20;6.50;99.90
38090;DHT22;23904;52.322;10.232;2024-01-30T01:38:46;6.50;99.90
38090;DHT22;23904;52.322;10.232;2024-01-30T01:41:11;6.50;99.90
38090;DHT22;23904;52.322;10.232;2024-01-30T01:43:37;6.50;99.90
38090;DHT22;23904;52.322;10.232;2024-01-30T01:46:04;6.50;99.90
38090;DHT22;23904;52.322;10.232;2024-01-30T01:48:31;6.50;99.90
38090;DHT22;23904;52.322;10.232;2024-01-30T01:50:57;6.50;99.90
38090;DHT22;23904;52.322;10.232;2024-01-30T01:53:23;6.50;99.90
38090;DHT22;23904;52.322;10.232;2024-01-30T01:55:49;6.50;99.90
38090;DHT22;23904;52.322;10.232;2024-01-30T01:58:14;6.50;99.90
38090;DHT22;23904;52.322;10.232;2024-01-30T02:00:40;6.60;99.90
38090;DHT22;23904;52.322;10.232;2024-01-30T02:03:09;6.60;99.90
38090;DHT22;23904;52.322;10.232;2024-01-30T02:05:37;6.60;99.90
38090;DHT22;23904;52.322;10.232;2024-01-30T02:08:02;6.60;99.90
38090;DHT22;23904;52.322;10.232;2024-01-30T02:10:28;6.60;99.90
38090;DHT22;23904;52.322;10.232;2024-01-30T02:12:54;6.60;99.90
38090;DHT22;23904;52.322;10.232;2024-01-30T02:15:19;6.60;99.90
38090;DHT22;23904;52.322;10.232;2024-01-30T02:17:45;6.60;99.90
38090;DHT22;23904;52.322;10.232;2024-01-30T02:20:11;6.60;99.90
38090;DHT22;23904;52.322;10.232;2024-01-30T02:22:37;6.60;99.90
38090;DHT22;23904;52.322;10.232;2024-01-30T02:25:03;6.60;99.90
38090;DHT22;23904;52.322;10.232;2024-01-30T02:27:28;6.60;99.90
38090;DHT22;23904;52.322;10.232;2024-01-30T02:29:54;6.50;99.90
38090;DHT22;23904;52.322;10.232;2024-01-30T02:32:19;6.40;99.90
38090;DHT22;23904;52.322;10.232;2024-01-30T02:34:45;6.40;99.90
38090;DHT22;23904;52.322;10.232;2024-01-30T02:37:10;6.40;99.90
38090;DHT22;23904;52.322;10.232;2024-01-30T02:39:36;6.50;99.90
38090;DHT22;23904;52.322;10.232;2024-01-30T02:42:01;6.50;99.90
38090;DHT22;23904;52.322;10.232;2024-01-30T02:44:27;6.60;99.90
38090;DHT22;23904;52.322;10.232;2024-01-30T02:46:52;6.60;99.90
38090;DHT22;23904;52.322;10.232;2024-01-30T02:49:19;6.50;99.90
38090;DHT22;23904;52.322;10.232;2024-01-30T02:51:45;6.40;99.90
38090;DHT22;23904;52.322;10.232;2024-01-30T02:54:10;6.40;99.90
38090;DHT22;23904;52.322;10.232;2024-01-30T02:56:36;6.40;99.90
38090;DHT22;23904;52.322;10.232;2024-01-30T02:59:02;6.30;99.90
38090;DHT22;23904;52.322;10.232;2024-01-30T03:01:27;6.30;99.90
38090;DHT22;23904;52.322;10.232;2024-01-30T03:03:53;6.30;99.90
38090;DHT22;23904;52.322;10.232;2024-01-30T03:06:18;6.30;99.90
38090;DHT22;23904;52.322;10.232;2024-01-30T03:08:45;6.30;99.90
38090;DHT22;23904;52.322;10.232;2024-01-30T03:11:11;6.30;99.90
38090;DHT22;23904;52.322;10.232;2024-01-30T03:13:36;6.30;99.90
38090;DHT22;23904;52.322;10.232;2024-01-30T03:16:02;6.30;99.90
38090;DHT22;23904;52.322;10.232;2024-01-30T03:18:28;6.40;99.90
38090;DHT22;23904;52.322;10.232;2024-01-30T03:20:53;6.40;99.90
38090;DHT22;23904;52.322;10.232;2024-01-30T03:23:19;6.40;99.90
38090;DHT22;23904;52.322;10.232;2024-01-30T03:25:44;6.40;99.90
38090;DHT22;23904;52.322;10.232;2024-01-30T03:28:10;6.40;99.90
38090;DHT22;23904;52.322;10.232;2024-01-30T03:30:35;6.50;99.90
38090;DHT22;23904;52.322;10.232;2024-01-30T03:33:01;6.60;99.90
38090;DHT22;23904;52.322;10.232;2024-01-30T03:35:26;6.60;99.90
38090;DHT22;23904;52.322;10.232;2024-01-30T03:37:52;6.60;99.90
38090;DHT22;23904;52.322;10.232;2024-01-30T03:40:17;6.70;99.90
38090;DHT22;23904;52.322;10.232;2024-01-30T03:42:43;6.70;99.90
38090;DHT22;23904;52.322;10.232;2024-01-30T03:45:08;6.70;99.90
38090;DHT22;23904;52.322;10.232;2024-01-30T03:47:34;6.70;99.90
38090;DHT22;23904;52.322;10.232;2024-01-30T03:50:00;6.80;99.90
38090;DHT22;23904;52.322;10.232;2024-01-30T03:52:25;6.80;99.90
38090;DHT22;23904;52.322;10.232;2024-01-30T03:54:51;6.90;99.90
38090;DHT22;23904;52.322;10.232;2024-01-30T03:57:16;6.90;99.90
38090;DHT22;23904;52.322;10.232;2024-01-30T03:59:42;6.80;99.90
38090;DHT22;23904;52.322;10.232;2024-01-30T04:02:08;6.80;99.90
38090;DHT22;23904;52.322;10.232;2024-01-30T04:07:10;6.80;99.90
38090;DHT22;23904;52.322;10.232;2024-01-30T04:09:35;6.70;99.90
38090;DHT22;23904;52.322;10.232;2024-01-30T04:12:01;6.70;99.90
38090;DHT22;23904;52.322;10.232;2024-01-30T04:14:28;6.70;99.90
38090;DHT22;23904;52.322;10.232;2024-01-30T04:16:53;6.80;99.90
38090;DHT22;23904;52.322;10.232;2024-01-30T04:19:19;6.70;99.90
38090;DHT22;23904;52.322;10.232;2024-01-30T04:21:44;6.70;99.90
38090;DHT22;23904;52.322;10.232;2024-01-30T04:24:10;6.70;99.90
38090;DHT22;23904;52.322;10.232;2024-01-30T04:26:36;6.70;99.90
38090;DHT22;23904;52.322;10.232;2024-01-30T04:29:02;6.70;99.90
38090;DHT22;23904;52.322;10.232;2024-01-30T04:31:28;6.70;99.90
38090;DHT22;23904;52.322;10.232;2024-01-30T04:33:53;6.80;99.90
38090;DHT22;23904;52.322;10.232;2024-01-30T04:36:19;6.80;99.90
38090;DHT22;23904;52.322;10.232;2024-01-30T04:38:44;6.80;99.90
38090;DHT22;23904;52.322;10.232;2024-01-30T04:41:10;6.90;99.90
38090;DHT22;23904;52.322;10.232;2024-01-30T04:43:35;7.00;99.90
38090;DHT22;23904;52.322;10.232;2024-01-30T04:46:01;7.00;99.90
38090;DHT22;23904;52.322;10.232;2024-01-30T04:48:27;7.00;99.90
38090;DHT22;23904;52.322;10.232;2024-01-30T04:50:52;7.00;99.90
38090;DHT22;23904;52.322;10.232;2024-01-30T04:53:18;7.00;99.90
38090;DHT22;23904;52.322;10.232;2024-01-30T04:55:44;7.10;99.90
38090;DHT22;23904;52.322;10.232;2024-01-30T04:58:09;7.00;99.90
38090;DHT22;23904;52.322;10.232;2024-01-30T05:00:35;7.00;99.90
38090;DHT22;23904;52.322;10.232;2024-01-30T05:03:00;7.00;99.90
38090;DHT22;23904;52.322;10.232;2024-01-30T05:05:26;6.90;99.90
38090;DHT22;23904;52.322;10.232;2024-01-30T05:07:52;6.90;99.90
38090;DHT22;23904;52.322;10.232;2024-01-30T05:10:17;6.80;99.90
38090;DHT22;23904;52.322;10.232;2024-01-30T05:12:43;6.90;99.90
38090;DHT22;23904;52.322;10.232;2024-01-30T05:15:09;6.90;99.90
38090;DHT22;23904;52.322;10.232;2024-01-30T05:17:34;6.90;99.90
38090;DHT22;23904;52.322;10.232;2024-01-30T05:20:00;6.90;99.90
38090;DHT22;23904;52.322;10.232;2024-01-30T05:22:26;6.90;99.90
38090;DHT22;23904;52.322;10.232;2024-01-30T05:24:51;6.80;99.90
38090;DHT22;23904;52.322;10.232;2024-01-30T05:27:17;6.80;99.90
38090;DHT22;23904;52.322;10.232;2024-01-30T05:29:42;6.90;99.90
38090;DHT22;23904;52.322;10.232;2024-01-30T05:32:08;6.90;99.90
38090;DHT22;23904;52.322;10.232;2024-01-30T05:34:34;6.90;99.90
38090;DHT22;23904;52.322;10.232;2024-01-30T05:37:01;6.90;99.90
38090;DHT22;23904;52.322;10.232;2024-01-30T05:39:27;6.90;99.90
38090;DHT22;23904;52.322;10.232;2024-01-30T05:41:52;6.80;99.90
38090;DHT22;23904;52.322;10.232;2024-01-30T05:44:18;6.90;99.90
38090;DHT22;23904;52.322;10.232;2024-01-30T05:46:43;6.90;99.90
38090;DHT22;23904;52.322;10.232;2024-01-30T05:49:09;6.90;99.90
38090;DHT22;23904;52.322;10.232;2024-01-30T05:51:34;6.90;99.90
38090;DHT22;23904;52.322;10.232;2024-01-30T05:54:00;7.00;99.90
38090;DHT22;23904;52.322;10.232;2024-01-30T05:56:28;6.90;99.90
38090;DHT22;23904;52.322;10.232;2024-01-30T05:58:54;6.80;99.90
38090;DHT22;23904;52.322;10.232;2024-01-30T06:01:20;6.90;99.90
38090;DHT22;23904;52.322;10.232;2024-01-30T06:03:46;6.90;99.90
38090;DHT22;23904;52.322;10.232;2024-01-30T06:06:11;6.80;99.90
38090;DHT22;23904;52.322;10.232;2024-01-30T06:08:37;6.70;99.90
38090;DHT22;23904;52.322;10.232;2024-01-30T06:11:02;6.70;99.90
38090;DHT22;23904;52.322;10.232;2024-01-30T06:13:28;6.70;99.90
38090;DHT22;23904;52.322;10.232;2024-01-30T06:15:57;6.70;99.90
38090;DHT22;23904;52.322;10.232;2024-01-30T06:18:22;6.70;99.90
38090;DHT22;23904;52.322;10.232;2024-01-30T06:20:48;6.60;99.90
38090;DHT22;23904;52.322;10.232;2024-01-30T06:23:14;6.70;99.90
38090;DHT22;23904;52.322;10.232;2024-01-30T06:25:40;6.80;99.90
38090;DHT22;23904;52.322;10.232;2024-01-30T06:28:06;6.70;99.90
38090;DHT22;23904;52.322;10.232;2024-01-30T06:30:31;6.80;99.90
38090;DHT22;23904;52.322;10.232;2024-01-30T06:32:57;6.80;99.90
38090;DHT22;23904;52.322;10.232;2024-01-30T06:35:22;6.80;99.90
38090;DHT22;23904;52.322;10.232;2024-01-30T06:37:48;6.70;99.90
38090;DHT22;23904;52.322;10.232;2024-01-30T06:40:13;6.80;99.90
38090;DHT22;23904;52.322;10.232;2024-01-30T06:42:39;6.70;99.90
38090;DHT22;23904;52.322;10.232;2024-01-30T06:45:05;6.80;99.90
38090;DHT22;23904;52.322;10.232;2024-01-30T06:47:31;6.70;99.90
38090;DHT22;23904;52.322;10.232;2024-01-30T06:49:57;6.70;99.90
38090;DHT22;23904;52.322;10.232;2024-01-30T06:52:23;6.70;99.90
38090;DHT22;23904;52.322;10.232;2024-01-30T06:54:48;6.70;99.90
38090;DHT22;23904;52.322;10.232;2024-01-30T06:57:14;6.70;99.90
38090;DHT22;23904;52.322;10.232;2024-01-30T06:59:40;6.70;99.90
38090;DHT22;23904;52.322;10.232;2024-01-30T07:02:11;6.70;99.90
38090;DHT22;23904;52.322;10.232;2024-01-30T07:04:37;6.60;99.90
38090;DHT22;23904;52.322;10.232;2024-01-30T07:07:03;6.60;99.90
38090;DHT22;23904;52.322;10.232;2024-01-30T07:09:31;6.60;99.90
38090;DHT22;23904;52.322;10.232;2024-01-30T07:11:56;6.60;99.90
38090;DHT22;23904;52.322;10.232;2024-01-30T07:14:24;6.50;99.90
38090;DHT22;23904;52.322;10.232;2024-01-30T07:16:50;6.50;99.90
38090;DHT22;23904;52.322;10.232;2024-01-30T07:19:16;6.50;99.90
38090;DHT22;23904;52.322;10.232;2024-01-30T07:21:41;6.40;99.90
38090;DHT22;23904;52.322;10.232;2024-01-30T07:24:07;6.30;99.90
38090;DHT22;23904;52.322;10.232;2024-01-30T07:26:33;6.30;99.90
38090;DHT22;23904;52.322;10.232;2024-01-30T07:28:58;6.30;99.90
38090;DHT22;23904;52.322;10.232;2024-01-30T07:31:24;6.30;99.90
38090;DHT22;23904;52.322;10.232;2024-01-30T07:33:49;6.30;99.90
38090;DHT22;23904;52.322;10.232;2024-01-30T07:36:15;6.40;99.90
38090;DHT22;23904;52.322;10.232;2024-01-30T07:38:40;6.30;99.90
38090;DHT22;23904;52.322;10.232;2024-01-30T07:41:06;6.30;99.90
38090;DHT22;23904;52.322;10.232;2024-01-30T07:43:31;6.30;99.90
38090;DHT22;23904;52.322;10.232;2024-01-30T07:45:59;6.40;99.90
38090;DHT22;23904;52.322;10.232;2024-01-30T07:48:26;6.40;99.90
38090;DHT22;23904;52.322;10.232;2024-01-30T07:50:51;6.50;99.90
38090;DHT22;23904;52.322;10.232;2024-01-30T07:53:18;6.60;99.90
38090;DHT22;23904;52.322;10.232;2024-01-30T07:55:44;6.60;99.90
38090;DHT22;23904;52.322;10.232;2024-01-30T07:58:12;6.70;99.90
38090;DHT22;23904;52.322;10.232;2024-01-30T08:00:37;6.80;99.90
38090;DHT22;23904;52.322;10.232;2024-01-30T08:03:03;6.80;99.90
38090;DHT22;23904;52.322;10.232;2024-01-30T08:05:30;6.90;99.90
38090;DHT22;23904;52.322;10.232;2024-01-30T08:07:56;7.00;99.90
38090;DHT22;23904;52.322;10.232;2024-01-30T08:10:22;7.00;99.90
38090;DHT22;23904;52.322;10.232;2024-01-30T08:12:47;7.00;99.90
38090;DHT22;23904;52.322;10.232;2024-01-30T08:15:13;7.00;99.90
38090;DHT22;23904;52.322;10.232;2024-01-30T08:17:39;7.10;99.90
38090;DHT22;23904;52.322;10.232;2024-01-30T08:20:05;7.20;99.90
38090;DHT22;23904;52.322;10.232;2024-01-30T08:22:33;7.20;99.90
38090;DHT22;23904;52.322;10.232;2024-01-30T08:24:59;7.30;99.90
38090;DHT22;23904;52.322;10.232;2024-01-30T08:27:24;7.30;99.90
38090;DHT22;23904;52.322;10.232;2024-01-30T08:29:50;7.40;99.90
38090;DHT22;23904;52.322;10.232;2024-01-30T08:32:16;7.40;99.90
38090;DHT22;23904;52.322;10.232;2024-01-30T08:34:41;7.50;99.90
38090;DHT22;23904;52.322;10.232;2024-01-30T08:37:07;7.50;99.90
38090;DHT22;23904;52.322;10.232;2024-01-30T08:39:32;7.60;99.90
38090;DHT22;23904;52.322;10.232;2024-01-30T08:41:58;7.70;99.90
38090;DHT22;23904;52.322;10.232;2024-01-30T08:44:23;7.80;99.90
38090;DHT22;23904;52.322;10.232;2024-01-30T08:46:49;7.80;99.90
38090;DHT22;23904;52.322;10.232;2024-01-30T08:49:16;7.80;99.90
38090;DHT22;23904;52.322;10.232;2024-01-30T08:51:42;7.80;99.90
38090;DHT22;23904;52.322;10.232;2024-01-30T08:54:07;7.90;99.90
38090;DHT22;23904;52.322;10.232;2024-01-30T08:56:33;7.90;99.90
38090;DHT22;23904;52.322;10.232;2024-01-30T08:58:59;7.90;99.90
38090;DHT22;23904;52.322;10.232;2024-01-30T09:01:25;8.00;99.90
38090;DHT22;23904;52.322;10.232;2024-01-30T09:03:51;7.90;99.90
38090;DHT22;23904;52.322;10.232;2024-01-30T09:06:17;7.90;99.90
38090;DHT22;23904;52.322;10.232;2024-01-30T09:08:43;7.90;99.90
38090;DHT22;23904;52.322;10.232;2024-01-30T09:11:09;8.00;99.90
38090;DHT22;23904;52.322;10.232;2024-01-30T09:13:36;8.00;99.90
38090;DHT22;23904;52.322;10.232;2024-01-30T09:16:02;8.00;99.90
38090;DHT22;23904;52.322;10.232;2024-01-30T09:18:28;8.00;99.90
38090;DHT22;23904;52.322;10.232;2024-01-30T09:20:54;8.10;99.90
38090;DHT22;23904;52.322;10.232;2024-01-30T09:23:19;8.20;99.90
38090;DHT22;23904;52.322;10.232;2024-01-30T09:25:45;8.30;99.90
38090;DHT22;23904;52.322;10.232;2024-01-30T09:28:11;8.40;99.90
38090;DHT22;23904;52.322;10.232;2024-01-30T09:30:36;8.50;99.90
38090;DHT22;23904;52.322;10.232;2024-01-30T09:33:02;8.50;99.90
38090;DHT22;23904;52.322;10.232;2024-01-30T09:35:29;8.50;99.90
38090;DHT22;23904;52.322;10.232;2024-01-30T09:37:55;8.60;99.90
38090;DHT22;23904;52.322;10.232;2024-01-30T09:40:22;8.60;99.90
38090;DHT22;23904;52.322;10.232;2024-01-30T09:42:50;8.80;99.90
38090;DHT22;23904;52.322;10.232;2024-01-30T09:45:19;8.90;99.90
38090;DHT22;23904;52.322;10.232;2024-01-30T09:47:45;9.10;99.90
38090;DHT22;23904;52.322;10.232;2024-01-30T09:50:12;9.10;99.90
38090;DHT22;23904;52.322;10.232;2024-01-30T09:52:39;9.30;99.90
38090;DHT22;23904;52.322;10.232;2024-01-30T09:55:06;9.30;99.90
38090;DHT22;23904;52.322;10.232;2024-01-30T09:57:34;9.40;99.90
38090;DHT22;23904;52.322;10.232;2024-01-30T09:59:59;9.50;99.90
38090;DHT22;23904;52.322;10.232;2024-01-30T10:02:25;9.60;99.90
38090;DHT22;23904;52.322;10.232;2024-01-30T10:04:52;9.90;99.90
38090;DHT22;23904;52.322;10.232;2024-01-30T10:07:18;9.90;99.90
38090;DHT22;23904;52.322;10.232;2024-01-30T10:09:44;10.00;99.90
38090;DHT22;23904;52.322;10.232;2024-01-30T10:12:11;10.20;99.90
38090;DHT22;23904;52.322;10.232;2024-01-30T10:14:39;10.50;99.90
38090;DHT22;23904;52.322;10.232;2024-01-30T10:17:08;10.60;99.90
38090;DHT22;23904;52.322;10.232;2024-01-30T10:19:35;11.00;99.90
38090;DHT22;23904;52.322;10.232;2024-01-30T10:22:02;11.10;99.90
38090;DHT22;23904;52.322;10.232;2024-01-30T10:24:29;11.20;99.90
38090;DHT22;23904;52.322;10.232;2024-01-30T10:26:57;11.20;99.90
38090;DHT22;23904;52.322;10.232;2024-01-30T10:29:24;11.00;99.90
38090;DHT22;23904;52.322;10.232;2024-01-30T10:32:02;11.00;99.90
38090;DHT22;23904;52.322;10.232;2024-01-30T10:34:29;10.80;99.90
38090;DHT22;23904;52.322;10.232;2024-01-30T10:39:39;10.70;99.90
38090;DHT22;23904;52.322;10.232;2024-01-30T10:42:06;10.60;99.90
38090;DHT22;23904;52.322;10.232;2024-01-30T10:44:39;10.50;99.90
38090;DHT22;23904;52.322;10.232;2024-01-30T10:47:12;10.30;99.90
38090;DHT22;23904;52.322;10.232;2024-01-30T10:49:41;10.30;99.90
38090;DHT22;23904;52.322;10.232;2024-01-30T10:52:13;10.40;99.90
38090;DHT22;23904;52.322;10.232;2024-01-30T10:54:41;10.50;99.90
38090;DHT22;23904;52.322;10.232;2024-01-30T10:57:10;10.60;99.90
38090;DHT22;23904;52.322;10.232;2024-01-30T10:59:37;10.70;99.90
38090;DHT22;23904;52.322;10.232;2024-01-30T11:02:03;10.90;99.90
38090;DHT22;23904;52.322;10.232;2024-01-30T11:04:37;10.90;99.90
38090;DHT22;23904;52.322;10.232;2024-01-30T11:07:05;10.70;99.90
38090;DHT22;23904;52.322;10.232;2024-01-30T11:09:40;10.90;99.90
38090;DHT22;23904;52.322;10.232;2024-01-30T11:12:12;11.00;99.90
38090;DHT22;23904;52.322;10.232;2024-01-30T11:14:38;11.00;99.90
38090;DHT22;23904;52.322;10.232;2024-01-30T11:17:09;11.00;99.90
38090;DHT22;23904;52.322;10.232;2024-01-30T11:19:37;10.80;99.90
38090;DHT22;23904;52.322;10.232;2024-01-30T11:22:06;10.90;99.90
38090;DHT22;23904;52.322;10.232;2024-01-30T11:24:41;10.70;99.90
38090;DHT22;23904;52.322;10.232;2024-01-30T11:27:10;10.70;99.90
38090;DHT22;23904;52.322;10.232;2024-01-30T11:29:36;10.90;99.90
38090;DHT22;23904;52.322;10.232;2024-01-30T11:32:02;10.80;99.90
38090;DHT22;23904;52.322;10.232;2024-01-30T11:34:28;10.80;99.90
38090;DHT22;23904;52.322;10.232;2024-01-30T11:36:58;10.70;99.90
38090;DHT22;23904;52.322;10.232;2024-01-30T11:39:25;10.80;99.90
38090;DHT22;23904;52.322;10.232;2024-01-30T11:41:56;10.80;99.90
38090;DHT22;23904;52.322;10.232;2024-01-30T11:44:22;10.80;99.90
38090;DHT22;23904;52.322;10.232;2024-01-30T11:46:49;10.80;99.90
38090;DHT22;23904;52.322;10.232;2024-01-30T11:49:16;10.70;99.90
38090;DHT22;23904;52.322;10.232;2024-01-30T11:51:43;10.70;99.90
38090;DHT22;23904;52.322;10.232;2024-01-30T11:54:11;10.60;99.90
38090;DHT22;23904;52.322;10.232;2024-01-30T11:56:37;10.50;99.90
38090;DHT22;23904;52.322;10.232;2024-01-30T11:59:05;10.40;99.90
38090;DHT22;23904;52.322;10.232;2024-01-30T12:01:31;10.40;99.90
38090;DHT22;23904;52.322;10.232;2024-01-30T12:03:58;10.30;99.90
38090;DHT22;23904;52.322;10.232;2024-01-30T12:06:24;10.40;99.90
38090;DHT22;23904;52.322;10.232;2024-01-30T12:09:09;10.40;99.90
38090;DHT22;23904;52.322;10.232;2024-01-30T12:11:45;10.50;99.90
38090;DHT22;23904;52.322;10.232;2024-01-30T12:14:12;10.40;99.90
38090;DHT22;23904;52.322;10.232;2024-01-30T12:16:38;10.50;99.90
38090;DHT22;23904;52.322;10.232;2024-01-30T12:19:03;10.70;99.90
38090;DHT22;23904;52.322;10.232;2024-01-30T12:21:29;10.80;99.90
38090;DHT22;23904;52.322;10.232;2024-01-30T12:23:56;10.80;99.90
38090;DHT22;23904;52.322;10.232;2024-01-30T12:26:24;10.80;99.90
38090;DHT22;23904;52.322;10.232;2024-01-30T12:28:53;10.90;99.90
38090;DHT22;23904;52.322;10.232;2024-01-30T12:31:26;10.90;99.90
38090;DHT22;23904;52.322;10.232;2024-01-30T12:33:59;10.80;99.90
38090;DHT22;23904;52.322;10.232;2024-01-30T12:36:25;10.80;99.90
38090;DHT22;23904;52.322;10.232;2024-01-30T12:38:51;11.00;99.90
38090;DHT22;23904;52.322;10.232;2024-01-30T12:41:19;11.10;99.90
38090;DHT22;23904;52.322;10.232;2024-01-30T12:43:45;11.30;99.90
38090;DHT22;23904;52.322;10.232;2024-01-30T12:46:12;11.90;99.90
38090;DHT22;23904;52.322;10.232;2024-01-30T12:48:38;12.30;99.90
38090;DHT22;23904;52.322;10.232;2024-01-30T12:51:04;12.50;99.90
38090;DHT22;23904;52.322;10.232;2024-01-30T12:53:30;12.60;99.90
38090;DHT22;23904;52.322;10.232;2024-01-30T12:55:55;12.70;99.90
38090;DHT22;23904;52.322;10.232;2024-01-30T12:58:21;12.90;99.90
38090;DHT22;23904;52.322;10.232;2024-01-30T13:00:46;12.90;99.90
38090;DHT22;23904;52.322;10.232;2024-01-30T13:03:12;12.60;99.90
38090;DHT22;23904;52.322;10.232;2024-01-30T13:05:38;12.70;99.90
38090;DHT22;23904;52.322;10.232;2024-01-30T13:08:04;12.50;99.90
38090;DHT22;23904;52.322;10.232;2024-01-30T13:10:30;12.20;99.90
38090;DHT22;23904;52.322;10.232;2024-01-30T13:12:55;12.10;99.90
38090;DHT22;23904;52.322;10.232;2024-01-30T13:15:21;12.00;99.90
38090;DHT22;23904;52.322;10.232;2024-01-30T13:17:48;12.00;99.90
38090;DHT22;23904;52.322;10.232;2024-01-30T13:20:15;12.00;99.90
38090;DHT22;23904;52.322;10.232;2024-01-30T13:22:44;12.00;99.90
38090;DHT22;23904;52.322;10.232;2024-01-30T13:25:10;12.00;99.90
38090;DHT22;23904;52.322;10.232;2024-01-30T13:27:36;11.90;99.90
38090;DHT22;23904;52.322;10.232;2024-01-30T13:30:03;11.60;99.90
38090;DHT22;23904;52.322;10.232;2024-01-30T13:32:29;11.50;99.90
38090;DHT22;23904;52.322;10.232;2024-01-30T13:34:55;11.60;99.90
38090;DHT22;23904;52.322;10.232;2024-01-30T13:37:22;11.90;99.90
38090;DHT22;23904;52.322;10.232;2024-01-30T13:39:48;12.10;99.90
38090;DHT22;23904;52.322;10.232;2024-01-30T13:42:13;12.10;99.90
38090;DHT22;23904;52.322;10.232;2024-01-30T13:44:39;12.10;99.90
38090;DHT22;23904;52.322;10.232;2024-01-30T13:47:04;12.30;99.90
38090;DHT22;23904;52.322;10.232;2024-01-30T13:49:30;12.20;99.90
38090;DHT22;23904;52.322;10.232;2024-01-30T13:51:56;12.10;99.90
38090;DHT22;23904;52.322;10.232;2024-01-30T13:54:21;12.00;99.90
38090;DHT22;23904;52.322;10.232;2024-01-30T13:56:47;11.70;99.90
38090;DHT22;23904;52.322;10.232;2024-01-30T13:59:12;11.50;99.90
38090;DHT22;23904;52.322;10.232;2024-01-30T14:01:38;11.50;99.90
38090;DHT22;23904;52.322;10.232;2024-01-30T14:04:03;11.20;99.90
38090;DHT22;23904;52.322;10.232;2024-01-30T14:06:29;11.10;99.90
38090;DHT22;23904;52.322;10.232;2024-01-30T14:08:55;11.00;99.90
38090;DHT22;23904;52.322;10.232;2024-01-30T14:11:20;10.90;99.90
38090;DHT22;23904;52.322;10.232;2024-01-30T14:13:46;10.80;99.90
38090;DHT22;23904;52.322;10.232;2024-01-30T14:16:11;10.70;99.90
38090;DHT22;23904;52.322;10.232;2024-01-30T14:18:37;10.60;99.90
38090;DHT22;23904;52.322;10.232;2024-01-30T14:21:03;10.70;99.90
38090;DHT22;23904;52.322;10.232;2024-01-30T14:23:28;10.60;99.90
38090;DHT22;23904;52.322;10.232;2024-01-30T14:25:54;10.60;99.90
38090;DHT22;23904;52.322;10.232;2024-01-30T14:28:19;10.70;99.90
38090;DHT22;23904;52.322;10.232;2024-01-30T14:30:45;10.60;99.90
38090;DHT22;23904;52.322;10.232;2024-01-30T14:33:10;10.60;99.90
38090;DHT22;23904;52.322;10.232;2024-01-30T14:35:37;10.50;99.90
38090;DHT22;23904;52.322;10.232;2024-01-30T14:38:02;10.50;99.90
38090;DHT22;23904;52.322;10.232;2024-01-30T14:40:30;10.40;99.90
38090;DHT22;23904;52.322;10.232;2024-01-30T14:42:56;10.40;99.90
38090;DHT22;23904;52.322;10.232;2024-01-30T14:45:21;10.40;99.90
38090;DHT22;23904;52.322;10.232;2024-01-30T14:47:47;10.40;99.90
38090;DHT22;23904;52.322;10.232;2024-01-30T14:50:13;10.40;99.90
38090;DHT22;23904;52.322;10.232;2024-01-30T14:52:39;10.40;99.90
38090;DHT22;23904;52.322;10.232;2024-01-30T14:55:05;10.30;99.90
38090;DHT22;23904;52.322;10.232;2024-01-30T14:57:31;10.40;99.90
38090;DHT22;23904;52.322;10.232;2024-01-30T14:59:57;10.30;99.90
38090;DHT22;23904;52.322;10.232;2024-01-30T15:02:23;10.30;99.90
38090;DHT22;23904;52.322;10.232;2024-01-30T15:04:48;10.30;99.90
38090;DHT22;23904;52.322;10.232;2024-01-30T15:07:14;10.30;99.90
38090;DHT22;23904;52.322;10.232;2024-01-30T15:09:39;10.30;99.90
38090;DHT22;23904;52.322;10.232;2024-01-30T15:12:05;10.20;99.90
38090;DHT22;23904;52.322;10.232;2024-01-30T15:14:30;10.20;99.90
38090;DHT22;23904;52.322;10.232;2024-01-30T15:16:56;10.20;99.90
38090;DHT22;23904;52.322;10.232;2024-01-30T15:19:22;10.10;99.90
38090;DHT22;23904;52.322;10.232;2024-01-30T15:21:48;10.00;99.90
38090;DHT22;23904;52.322;10.232;2024-01-30T15:24:13;10.10;99.90